Time;durP1;ratioP1;P1;durP2;ratioP2;P2;SDS_P1;SDS_P2;PMS_P1;PMS_P2;Temp;Humidity;BMP_temperature;BMP_pressure;BME280_temperature;BME280_humidity;BME280_pressure;Samples;Min_cycle;Max_cycle;Signal;HPM_P1;HPM_P2
2023/08/15 00:02:16;;;;;;;2.47;1.80;;;24.50;61.90;;;;;;4882621;29;20513;-76
2023/08/15 00:04:42;;;;;;;2.70;1.70;;;24.50;62.00;;;;;;4897848;29;20466;-76
2023/08/15 00:07:07;;;;;;;2.22;1.75;;;24.40;62.00;;;;;;4913314;29;20036;-75
2023/08/15 00:09:33;;;;;;;2.60;1.75;;;24.40;62.00;;;;;;4897862;29;20052;-74
2023/08/15 00:11:59;;;;;;;2.63;1.90;;;24.40;62.00;;;;;;4897629;29;20076;-75
2023/08/15 00:14:26;;;;;;;2.72;1.52;;;24.40;62.10;;;;;;4897980;29;20123;-74
2023/08/15 00:16:52;;;;;;;2.03;1.60;;;24.40;62.10;;;;;;4898215;29;20467;-74
2023/08/15 00:19:18;;;;;;;2.67;1.80;;;24.40;62.10;;;;;;4881977;29;20040;-75
2023/08/15 00:21:43;;;;;;;2.42;1.73;;;24.40;62.20;;;;;;4898416;29;20100;-75
2023/08/15 00:24:09;;;;;;;3.40;1.83;;;24.30;62.10;;;;;;4898702;29;20089;-75
2023/08/15 00:26:35;;;;;;;2.53;1.67;;;24.30;62.20;;;;;;4913156;29;20040;-75
2023/08/15 00:29:01;;;;;;;2.28;1.77;;;24.30;62.20;;;;;;4897058;29;20064;-75
2023/08/15 00:31:27;;;;;;;1.83;1.60;;;24.30;62.20;;;;;;4912910;29;20049;-77
2023/08/15 00:33:53;;;;;;;2.72;2.00;;;24.30;62.20;;;;;;4913687;29;20048;-76
2023/08/15 00:36:20;;;;;;;2.10;1.67;;;24.20;62.20;;;;;;4897381;29;20439;-76
2023/08/15 00:38:45;;;;;;;2.40;1.90;;;24.20;62.30;;;;;;4897159;29;20056;-78
2023/08/15 00:41:11;;;;;;;1.83;1.50;;;24.20;62.30;;;;;;4913157;29;20398;-75
2023/08/15 00:43:37;;;;;;;2.22;1.90;;;24.20;62.30;;;;;;4897245;29;20047;-75
2023/08/15 00:46:06;;;;;;;3.10;2.00;;;24.20;62.40;;;;;;4897208;29;20100;-76
2023/08/15 00:48:33;;;;;;;2.28;1.80;;;24.20;62.40;;;;;;4897922;29;20036;-75
2023/08/15 00:51:01;;;;;;;1.98;1.67;;;24.10;62.40;;;;;;4912743;29;20036;-76
2023/08/15 00:53:33;;;;;;;3.03;1.95;;;24.10;62.50;;;;;;4913024;29;20036;-76
2023/08/15 00:56:01;;;;;;;;;;;24.10;62.50;;;;;;4898101;29;20025;-75
2023/08/15 00:58:30;;;;;;;1.63;1.45;;;24.00;62.40;;;;;;4913014;29;20004;-75
2023/08/15 01:00:56;;;;;;;2.13;1.80;;;24.10;62.50;;;;;;4881576;29;20093;-75
2023/08/15 01:03:22;;;;;;;2.08;1.67;;;24.10;62.60;;;;;;4912648;29;20033;-76
2023/08/15 01:05:48;;;;;;;2.65;1.80;;;24.00;62.60;;;;;;4912775;29;20041;-77
2023/08/15 01:08:15;;;;;;;2.90;1.77;;;24.00;62.60;;;;;;4898408;29;20041;-75
2023/08/15 01:10:43;;;;;;;2.20;1.55;;;24.00;62.70;;;;;;4881293;29;20043;-75
2023/08/15 01:13:12;;;;;;;2.22;1.70;;;24.00;62.70;;;;;;4896830;29;20398;-76
2023/08/15 01:15:45;;;;;;;2.67;1.85;;;24.00;62.70;;;;;;4896826;29;20025;-76
2023/08/15 01:18:17;;;;;;;2.30;1.75;;;23.90;62.70;;;;;;4898772;29;20040;-76
2023/08/15 01:20:45;;;;;;;2.47;2.10;;;23.90;62.70;;;;;;4897060;29;20040;-76
2023/08/15 01:23:14;;;;;;;2.75;1.80;;;23.90;62.70;;;;;;4896832;29;20470;-75
2023/08/15 01:25:41;;;;;;;2.33;1.80;;;23.90;62.80;;;;;;4898336;29;20505;-77
2023/08/15 01:28:15;;;;;;;2.50;1.80;;;23.90;62.80;;;;;;4881227;29;20033;-76
2023/08/15 01:30:57;;;;;;;3.00;1.90;;;23.90;62.90;;;;;;4897539;29;20040;-76
2023/08/15 01:33:57;;;;;;;3.30;1.85;;;23.80;62.90;;;;;;4912866;29;20047;-76
2023/08/15 01:36:30;;;;;;;3.28;1.70;;;23.80;62.90;;;;;;4897125;29;20516;-76
2023/08/15 01:39:00;;;;;;;2.33;1.90;;;23.80;62.90;;;;;;4896691;29;20049;-76
2023/08/15 01:41:28;;;;;;;1.95;1.50;;;23.80;62.90;;;;;;4881375;29;20494;-77
2023/08/15 01:43:54;;;;;;;2.30;1.75;;;23.70;62.90;;;;;;4897068;29;20044;-76
2023/08/15 01:46:20;;;;;;;2.65;1.73;;;23.70;63.00;;;;;;4912494;29;20065;-76
2023/08/15 01:48:46;;;;;;;3.20;2.10;;;23.70;63.00;;;;;;4897925;29;20037;-76
2023/08/15 01:51:12;;;;;;;2.42;1.90;;;23.70;63.70;;;;;;4912416;29;20040;-76
2023/08/15 01:53:38;;;;;;;2.33;1.80;;;23.70;63.10;;;;;;4900119;29;20040;-76
2023/08/15 01:56:05;;;;;;;2.65;1.80;;;23.70;63.10;;;;;;4916404;29;20446;-76
2023/08/15 01:58:31;;;;;;;3.53;2.08;;;23.70;63.10;;;;;;4900222;29;20478;-76
2023/08/15 02:00:57;;;;;;;2.13;1.88;;;23.70;63.20;;;;;;4899692;29;20040;-76
2023/08/15 02:03:25;;;;;;;2.55;1.75;;;23.70;63.30;;;;;;4900141;29;20040;-75
2023/08/15 02:05:51;;;;;;;2.25;1.92;;;23.60;63.20;;;;;;4884212;29;20047;-76
2023/08/15 02:08:16;;;;;;;2.63;1.70;;;23.70;63.30;;;;;;4884209;29;20128;-77
2023/08/15 02:10:42;;;;;;;2.55;1.75;;;23.60;63.30;;;;;;4884244;29;20417;-75
2023/08/15 02:13:08;;;;;;;2.42;1.90;;;23.60;63.30;;;;;;4900779;29;20040;-75
2023/08/15 02:15:34;;;;;;;2.92;1.80;;;23.60;63.40;;;;;;4899645;29;20069;-75
2023/08/15 02:17:59;;;;;;;2.90;2.00;;;23.60;63.40;;;;;;4914985;29;20087;-75
2023/08/15 02:20:25;;;;;;;2.75;2.00;;;23.60;63.40;;;;;;4899542;29;20096;-75
2023/08/15 02:22:52;;;;;;;2.92;1.90;;;23.60;63.40;;;;;;4884038;29;20040;-75
2023/08/15 02:25:17;;;;;;;3.25;2.10;;;23.60;63.50;;;;;;4900863;29;20029;-75
2023/08/15 02:27:43;;;;;;;2.92;1.70;;;23.60;63.50;;;;;;4899721;29;20386;-75
2023/08/15 02:30:10;;;;;;;3.10;2.20;;;23.50;63.50;;;;;;4899433;29;20041;-78
2023/08/15 02:32:36;;;;;;;2.72;2.00;;;23.50;63.50;;;;;;4883943;29;20127;-75
2023/08/15 02:35:02;;;;;;;2.63;1.80;;;23.50;63.50;;;;;;4884630;29;20119;-75
2023/08/15 02:37:29;;;;;;;2.53;1.90;;;23.50;63.60;;;;;;4900636;29;20070;-76
2023/08/15 02:39:55;;;;;;;2.28;1.83;;;23.50;63.60;;;;;;4883249;29;20067;-75
2023/08/15 02:42:21;;;;;;;2.65;1.90;;;23.50;63.60;;;;;;4899394;29;20476;-77
2023/08/15 02:44:46;;;;;;;2.58;1.90;;;23.40;63.60;;;;;;4899322;29;20389;-75
2023/08/15 02:47:12;;;;;;;3.45;2.05;;;23.50;63.70;;;;;;4899553;29;20064;-76
2023/08/15 02:49:39;;;;;;;1.92;1.73;;;23.40;63.60;;;;;;4883738;29;20153;-77
2023/08/15 02:52:05;;;;;;;3.10;1.75;;;23.40;63.70;;;;;;4900076;29;20036;-75
2023/08/15 02:54:31;;;;;;;2.95;2.10;;;23.40;63.70;;;;;;4899050;29;20470;-75
2023/08/15 02:56:56;;;;;;;3.30;2.05;;;23.40;63.80;;;;;;4899200;29;20039;-75
2023/08/15 02:59:22;;;;;;;2.97;2.00;;;23.40;63.80;;;;;;4898982;29;20036;-76
2023/08/15 03:01:48;;;;;;;2.47;1.90;;;23.40;63.80;;;;;;4883398;29;20498;-75
2023/08/15 03:04:14;;;;;;;3.67;1.77;;;23.40;63.90;;;;;;4913918;29;20033;-75
2023/08/15 03:06:39;;;;;;;2.72;2.00;;;23.40;63.90;;;;;;4884121;29;20037;-77
2023/08/15 03:09:05;;;;;;;2.75;1.90;;;23.40;63.90;;;;;;4899026;29;20374;-74
2023/08/15 03:11:31;;;;;;;4.35;2.05;;;23.40;63.90;;;;;;4914336;29;20033;-74
2023/08/15 03:13:58;;;;;;;2.95;2.00;;;23.30;63.90;;;;;;4915181;29;20127;-76
2023/08/15 03:16:26;;;;;;;2.75;1.90;;;23.30;63.80;;;;;;4914410;29;20043;-74
2023/08/15 03:18:52;;;;;;;2.17;1.73;;;23.30;63.90;;;;;;4898563;29;20040;-77
2023/08/15 03:21:18;;;;;;;3.15;1.85;;;23.30;63.90;;;;;;4898678;29;20466;-75
2023/08/15 03:23:44;;;;;;;2.35;1.95;;;23.30;63.90;;;;;;4914120;29;20029;-75
2023/08/15 03:26:10;;;;;;;3.03;1.92;;;23.30;63.90;;;;;;4898640;29;20036;-75
2023/08/15 03:28:37;;;;;;;2.50;1.88;;;23.30;63.90;;;;;;4913935;29;20047;-75
2023/08/15 03:31:08;;;;;;;2.80;2.00;;;23.30;64.00;;;;;;4898554;29;20382;-76
2023/08/15 03:33:38;;;;;;;2.17;1.70;;;23.30;64.00;;;;;;4913691;29;20100;-76
2023/08/15 03:36:05;;;;;;;2.42;1.88;;;23.20;64.00;;;;;;4898257;29;20041;-76
2023/08/15 03:38:32;;;;;;;2.40;1.90;;;23.30;64.10;;;;;;4898255;29;20053;-75
2023/08/15 03:41:03;;;;;;;2.72;1.92;;;23.20;64.10;;;;;;4898413;29;20398;-75
2023/08/15 03:43:33;;;;;;;3.08;2.00;;;23.20;64.10;;;;;;4883335;29;20036;-76
2023/08/15 03:46:00;;;;;;;2.53;1.75;;;23.20;64.70;;;;;;4899883;29;20029;-76
2023/08/15 03:48:26;;;;;;;3.42;1.75;;;23.20;64.10;;;;;;4898029;29;20072;-76
2023/08/15 03:50:55;;;;;;;2.75;1.73;;;23.20;64.10;;;;;;4897845;29;20108;-76
2023/08/15 03:53:24;;;;;;;2.67;1.80;;;23.20;64.10;;;;;;4898050;29;20096;-76
2023/08/15 03:55:52;;;;;;;3.08;2.13;;;23.20;64.10;;;;;;4898055;29;20111;-75
2023/08/15 03:58:19;;;;;;;3.25;2.03;;;23.10;64.10;;;;;;4913356;29;20119;-76
2023/08/15 04:00:46;;;;;;;2.38;2.00;;;23.10;64.20;;;;;;4897927;29;20044;-76
2023/08/15 04:03:12;;;;;;;2.63;1.90;;;23.10;64.20;;;;;;4897690;29;20076;-77
2023/08/15 04:05:42;;;;;;;2.20;1.70;;;23.10;64.20;;;;;;4898490;29;20040;-76
2023/08/15 04:08:08;;;;;;;3.85;2.30;;;23.10;64.20;;;;;;4897912;29;20043;-75
2023/08/15 04:10:39;;;;;;;3.70;1.85;;;23.10;64.30;;;;;;4897556;29;20383;-75
2023/08/15 04:13:06;;;;;;;2.40;1.80;;;23.10;64.30;;;;;;4897417;29;20521;-76
2023/08/15 04:15:37;;;;;;;3.53;2.17;;;23.00;64.30;;;;;;4897683;29;20525;-75
2023/08/15 04:18:09;;;;;;;2.67;2.00;;;23.00;64.30;;;;;;4882963;29;20370;-76
2023/08/15 04:20:39;;;;;;;2.85;1.83;;;23.00;64.30;;;;;;4897791;29;20037;-76
2023/08/15 04:23:06;;;;;;;2.65;1.90;;;23.00;64.30;;;;;;4897510;29;20455;-77
2023/08/15 04:25:34;;;;;;;2.60;1.67;;;23.00;64.30;;;;;;4898729;29;20032;-75
2023/08/15 04:28:00;;;;;;;2.67;1.95;;;22.90;64.40;;;;;;4913098;29;20132;-76
2023/08/15 04:30:26;;;;;;;3.58;2.17;;;22.90;64.40;;;;;;4897494;29;20175;-76
2023/08/15 04:32:51;;;;;;;3.45;1.83;;;22.90;64.40;;;;;;4898595;29;20579;-76
2023/08/15 04:35:17;;;;;;;2.47;1.80;;;22.90;64.40;;;;;;4866401;29;20025;-76
2023/08/15 04:37:43;;;;;;;2.67;1.83;;;22.90;64.50;;;;;;4897335;29;20127;-75
2023/08/15 04:40:13;;;;;;;2.38;1.77;;;22.90;64.50;;;;;;4897544;29;20079;-76
2023/08/15 04:42:40;;;;;;;2.05;1.70;;;22.90;64.50;;;;;;4897566;29;20039;-77
2023/08/15 04:45:07;;;;;;;3.25;2.13;;;22.80;64.50;;;;;;4897522;29;20036;-75
2023/08/15 04:47:34;;;;;;;3.95;1.88;;;22.80;64.50;;;;;;4897141;29;20040;-75
2023/08/15 04:50:00;;;;;;;2.85;1.90;;;22.80;64.50;;;;;;4881585;29;20047;-76
2023/08/15 04:52:27;;;;;;;2.47;1.60;;;22.80;64.50;;;;;;4897168;29;20040;-75
2023/08/15 04:54:52;;;;;;;2.38;1.63;;;22.70;64.50;;;;;;4897193;29;20088;-76
2023/08/15 04:57:18;;;;;;;2.20;1.58;;;22.70;64.60;;;;;;4897616;29;20036;-75
2023/08/15 04:59:44;;;;;;;2.63;1.60;;;22.70;64.60;;;;;;4896837;29;20427;-76
2023/08/15 05:02:10;;;;;;;4.38;1.88;;;22.70;64.60;;;;;;4897040;29;20040;-75
2023/08/15 05:04:35;;;;;;;2.78;1.70;;;22.70;64.60;;;;;;4897480;29;20037;-75
2023/08/15 05:07:01;;;;;;;2.20;1.67;;;22.60;64.60;;;;;;4898304;29;20029;-74
2023/08/15 05:09:30;;;;;;;2.08;1.67;;;22.60;64.70;;;;;;4881410;29;20044;-75
2023/08/15 05:11:56;;;;;;;2.65;1.60;;;22.60;64.70;;;;;;4881535;29;20033;-74
2023/08/15 05:14:22;;;;;;;2.00;1.40;;;22.60;64.70;;;;;;4897236;29;20029;-74
2023/08/15 05:16:50;;;;;;;3.63;2.05;;;22.60;64.80;;;;;;4898693;29;20036;-77
2023/08/15 05:19:15;;;;;;;2.95;1.70;;;22.60;64.80;;;;;;4912977;29;20478;-75
2023/08/15 05:21:41;;;;;;;2.58;1.70;;;22.60;64.80;;;;;;4897002;29;20047;-75
2023/08/15 05:24:07;;;;;;;2.17;1.60;;;22.60;64.90;;;;;;4897022;29;20041;-75
2023/08/15 05:26:34;;;;;;;2.33;1.50;;;22.50;64.80;;;;;;4897343;29;20367;-75
2023/08/15 05:29:02;;;;;;;3.50;1.75;;;22.50;64.90;;;;;;4900244;29;20037;-75
2023/08/15 05:31:28;;;;;;;1.90;1.45;;;22.50;64.90;;;;;;4884910;29;20047;-75
2023/08/15 05:33:54;;;;;;;3.47;1.95;;;22.50;65.00;;;;;;4900494;29;20040;-76
2023/08/15 05:36:20;;;;;;;2.55;1.50;;;22.50;65.30;;;;;;4916090;29;20032;-76
2023/08/15 05:38:47;;;;;;;4.57;1.80;;;22.50;65.10;;;;;;4900104;29;20068;-76
2023/08/15 05:41:13;;;;;;;3.40;1.50;;;22.40;65.00;;;;;;4916117;29;20104;-76
2023/08/15 05:43:39;;;;;;;1.77;1.40;;;22.40;65.10;;;;;;4885282;29;20374;-76
2023/08/15 05:46:04;;;;;;;1.92;1.30;;;22.40;65.00;;;;;;4901047;29;20037;-75
2023/08/15 05:48:30;;;;;;;2.95;1.73;;;22.40;65.10;;;;;;4916232;29;20055;-75
2023/08/15 05:50:56;;;;;;;2.33;1.40;;;22.40;65.10;;;;;;4899896;29;20036;-76
2023/08/15 05:53:22;;;;;;;1.58;1.30;;;22.40;65.10;;;;;;4901642;29;20096;-75
2023/08/15 05:55:48;;;;;;;2.20;1.50;;;22.40;65.20;;;;;;4901430;29;20077;-75
2023/08/15 05:58:13;;;;;;;2.40;1.50;;;22.30;65.20;;;;;;4916068;29;20043;-77
2023/08/15 06:00:40;;;;;;;2.67;1.42;;;22.30;65.10;;;;;;4915449;29;20410;-75
2023/08/15 06:03:06;;;;;;;2.33;1.60;;;22.30;65.20;;;;;;4900230;29;20040;-75
2023/08/15 06:05:32;;;;;;;1.35;1.25;;;22.30;65.20;;;;;;4899882;29;20482;-75
2023/08/15 06:07:59;;;;;;;2.70;1.30;;;22.30;65.20;;;;;;4901373;29;20038;-76
2023/08/15 06:10:24;;;;;;;2.88;1.52;;;22.30;65.20;;;;;;4899798;29;20135;-75
2023/08/15 06:12:50;;;;;;;1.58;1.40;;;22.30;65.20;;;;;;4915372;29;20033;-75
2023/08/15 06:15:16;;;;;;;3.15;1.52;;;22.30;65.20;;;;;;4901317;29;20040;-75
2023/08/15 06:17:42;;;;;;;2.38;1.50;;;22.20;65.10;;;;;;4900531;29;20412;-75
2023/08/15 06:20:10;;;;;;;2.80;1.48;;;22.20;65.20;;;;;;4884214;29;20478;-76
2023/08/15 06:22:36;;;;;;;2.20;1.30;;;22.20;65.20;;;;;;4900631;29;20120;-76
2023/08/15 06:25:02;;;;;;;2.58;1.30;;;22.20;65.20;;;;;;4900629;29;20032;-76
2023/08/15 06:27:28;;;;;;;2.38;1.23;;;22.20;65.20;;;;;;4884033;29;20037;-76
2023/08/15 06:29:54;;;;;;;2.00;1.48;;;22.20;65.20;;;;;;4914966;29;20055;-76
2023/08/15 06:32:26;;;;;;;2.67;1.40;;;22.20;65.20;;;;;;4899783;29;20391;-76
2023/08/15 06:34:52;;;;;;;3.88;1.42;;;22.20;65.30;;;;;;4900996;29;20091;-76
2023/08/15 06:37:18;;;;;;;2.20;1.55;;;22.20;65.20;;;;;;4899417;29;20132;-76
2023/08/15 06:39:44;;;;;;;2.70;1.50;;;22.20;65.20;;;;;;4898401;29;20147;-75
2023/08/15 06:42:10;;;;;;;2.63;1.20;;;22.20;65.20;;;;;;4899167;29;20451;-76
2023/08/15 06:44:36;;;;;;;2.67;1.60;;;22.20;65.30;;;;;;4883705;29;20134;-75
2023/08/15 06:47:02;;;;;;;1.50;1.25;;;22.20;65.30;;;;;;4899356;29;20120;-76
2023/08/15 06:49:28;;;;;;;2.72;1.70;;;22.20;65.30;;;;;;4899934;29;20132;-75
2023/08/15 06:51:54;;;;;;;2.63;1.70;;;22.20;65.30;;;;;;4900607;29;20040;-75
2023/08/15 06:54:20;;;;;;;1.52;1.33;;;22.20;65.30;;;;;;4883899;29;20115;-76
2023/08/15 06:56:46;;;;;;;1.73;1.25;;;22.10;65.30;;;;;;4899086;29;20064;-76
2023/08/15 06:59:11;;;;;;;1.60;1.23;;;22.20;65.30;;;;;;4883269;29;20032;-75
2023/08/15 07:01:37;;;;;;;2.17;1.42;;;22.20;65.30;;;;;;4884233;29;20036;-75
2023/08/15 07:04:03;;;;;;;1.83;1.50;;;22.10;65.30;;;;;;4899761;29;20043;-75
2023/08/15 07:06:29;;;;;;;2.10;1.38;;;22.20;65.30;;;;;;4883464;29;20068;-75
2023/08/15 07:08:55;;;;;;;1.75;1.30;;;22.20;65.30;;;;;;4899800;29;20060;-76
2023/08/15 07:11:21;;;;;;;1.88;1.40;;;22.20;65.30;;;;;;4914596;29;20048;-75
2023/08/15 07:13:46;;;;;;;1.48;1.33;;;22.20;65.40;;;;;;4883099;29;20037;-76
2023/08/15 07:16:12;;;;;;;1.48;1.30;;;22.20;65.30;;;;;;4899939;29;20539;-77
2023/08/15 07:18:38;;;;;;;1.60;1.30;;;22.20;65.30;;;;;;4898545;29;20028;-75
2023/08/15 07:21:04;;;;;;;1.38;1.20;;;22.20;65.40;;;;;;4899380;29;20378;-75
2023/08/15 07:23:30;;;;;;;1.40;1.10;;;22.20;65.40;;;;;;4899068;29;20466;-75
2023/08/15 07:25:56;;;;;;;2.85;1.52;;;22.20;65.40;;;;;;4898636;29;20039;-75
2023/08/15 07:28:22;;;;;;;3.05;1.65;;;22.20;65.40;;;;;;4898375;29;20040;-74
2023/08/15 07:30:48;;;;;;;2.47;1.40;;;22.20;65.40;;;;;;4899775;29;20036;-75
2023/08/15 07:33:15;;;;;;;1.65;1.17;;;22.20;65.40;;;;;;4898960;29;20462;-75
2023/08/15 07:35:41;;;;;;;1.65;1.35;;;22.20;65.50;;;;;;4883781;29;20119;-76
2023/08/15 07:38:07;;;;;;;1.55;1.30;;;22.20;65.50;;;;;;4899213;29;20072;-74
2023/08/15 07:40:33;;;;;;;3.25;1.35;;;22.20;65.60;;;;;;4899188;29;20490;-75
2023/08/15 07:42:59;;;;;;;1.77;1.20;;;22.20;65.50;;;;;;4914345;29;20081;-76
2023/08/15 07:45:24;;;;;;;2.17;1.35;;;22.30;65.60;;;;;;4899140;29;20151;-76
2023/08/15 07:47:56;;;;;;;2.13;1.30;;;22.20;65.50;;;;;;4898173;29;20043;-75
2023/08/15 07:50:25;;;;;;;2.65;1.65;;;22.30;65.60;;;;;;4897863;29;20048;-76
2023/08/15 07:52:52;;;;;;;1.40;1.17;;;22.30;65.60;;;;;;4913664;29;20040;-76
2023/08/15 07:55:18;;;;;;;1.80;1.40;;;22.30;65.60;;;;;;4899509;29;20046;-76
2023/08/15 07:57:44;;;;;;;2.03;1.40;;;22.30;65.60;;;;;;4897917;29;20036;-76
2023/08/15 08:00:12;;;;;;;1.10;1.00;;;22.30;65.60;;;;;;4897944;29;20389;-76
2023/08/15 08:02:41;;;;;;;1.23;1.13;;;22.30;65.60;;;;;;4899828;29;20045;-76
2023/08/15 08:05:09;;;;;;;1.73;1.10;;;22.40;65.70;;;;;;4897997;29;20032;-76
2023/08/15 08:07:35;;;;;;;1.80;1.30;;;22.40;65.60;;;;;;4898748;29;20037;-76
2023/08/15 08:10:02;;;;;;;2.15;1.45;;;22.50;65.70;;;;;;4899135;29;20039;-76
2023/08/15 08:12:29;;;;;;;1.55;1.30;;;22.40;65.60;;;;;;4897793;29;20037;-76
2023/08/15 08:14:55;;;;;;;1.75;1.13;;;22.50;65.70;;;;;;4897616;29;20045;-75
2023/08/15 08:17:21;;;;;;;1.65;1.25;;;22.50;65.60;;;;;;4913533;29;20104;-74
2023/08/15 08:19:47;;;;;;;1.85;1.25;;;22.50;65.60;;;;;;4897973;29;20059;-76
2023/08/15 08:22:13;;;;;;;1.80;1.15;;;22.60;65.70;;;;;;4913094;29;20491;-75
2023/08/15 08:24:39;;;;;;;1.30;1.20;;;22.60;66.30;;;;;;4897479;29;20037;-75
2023/08/15 08:27:05;;;;;;;1.80;1.35;;;22.60;65.60;;;;;;4913129;29;20033;-76
2023/08/15 08:29:30;;;;;;;2.15;1.10;;;22.60;65.60;;;;;;4881948;29;20508;-75
2023/08/15 08:31:56;;;;;;;1.45;1.10;;;22.70;65.60;;;;;;4881759;29;20037;-76
2023/08/15 08:34:22;;;;;;;1.75;1.20;;;22.70;65.50;;;;;;4897618;29;20044;-76
2023/08/15 08:36:48;;;;;;;1.73;1.02;;;22.80;65.50;;;;;;4897476;29;20040;-76
2023/08/15 08:39:13;;;;;;;1.92;1.27;;;22.80;65.50;;;;;;4881694;29;20059;-75
2023/08/15 08:41:39;;;;;;;2.50;1.25;;;22.90;65.50;;;;;;4897429;29;20028;-75
2023/08/15 08:44:06;;;;;;;1.55;1.17;;;22.90;65.30;;;;;;4912967;29;20041;-76
2023/08/15 08:46:33;;;;;;;1.27;1.10;;;23.00;66.00;;;;;;4913803;29;20045;-76
2023/08/15 08:49:00;;;;;;;1.08;0.95;;;23.00;65.20;;;;;;4897328;29;20511;-76
2023/08/15 08:51:27;;;;;;;1.27;0.95;;;23.10;65.20;;;;;;4896745;29;20040;-75
2023/08/15 08:53:53;;;;;;;1.52;1.23;;;23.10;65.20;;;;;;4897709;29;20072;-75
2023/08/15 08:56:22;;;;;;;1.83;1.10;;;23.20;65.10;;;;;;4898265;29;20039;-75
2023/08/15 08:59:05;;;;;;;1.33;1.17;;;23.30;65.10;;;;;;4897535;29;20037;-75
2023/08/15 09:01:31;;;;;;;1.88;1.10;;;23.30;65.00;;;;;;4897949;29;20032;-75
2023/08/15 09:03:58;;;;;;;1.67;1.13;;;23.30;64.90;;;;;;4901226;29;20099;-76
2023/08/15 09:06:27;;;;;;;1.70;1.00;;;23.40;64.90;;;;;;4901040;29;20032;-75
2023/08/15 09:08:53;;;;;;;1.63;1.00;;;23.40;64.80;;;;;;4900858;29;20393;-76
2023/08/15 09:11:20;;;;;;;1.42;1.17;;;23.50;64.80;;;;;;4901117;29;20040;-75
2023/08/15 09:13:47;;;;;;;1.45;1.00;;;23.50;64.70;;;;;;4900664;29;20033;-75
2023/08/15 09:16:13;;;;;;;2.25;1.23;;;23.60;64.70;;;;;;4900481;29;20025;-76
2023/08/15 09:18:38;;;;;;;2.05;1.30;;;23.60;64.70;;;;;;4902275;29;20036;-76
2023/08/15 09:21:07;;;;;;;2.38;1.40;;;23.70;64.70;;;;;;4900798;29;20401;-75
2023/08/15 09:23:33;;;;;;;1.33;0.98;;;23.80;64.80;;;;;;4916395;29;20518;-75
2023/08/15 09:26:14;;;;;;;1.65;1.08;;;23.70;64.70;;;;;;4900657;29;20044;-75
2023/08/15 09:28:41;;;;;;;1.10;1.00;;;23.80;64.80;;;;;;4901692;29;20047;-75
2023/08/15 09:31:09;;;;;;;1.50;1.08;;;23.80;64.70;;;;;;4900562;29;20119;-75
2023/08/15 09:33:38;;;;;;;2.67;1.27;;;23.90;64.70;;;;;;4900782;29;20048;-75
2023/08/15 09:36:05;;;;;;;1.63;1.10;;;23.90;64.70;;;;;;4901455;29;20037;-75
2023/08/15 09:38:35;;;;;;;1.05;0.95;;;24.00;64.70;;;;;;4900720;29;20467;-75
2023/08/15 09:41:01;;;;;;;1.83;1.25;;;24.00;64.60;;;;;;4916359;29;20037;-76
2023/08/15 09:43:27;;;;;;;1.58;1.30;;;24.10;64.60;;;;;;4901347;29;20478;-76
2023/08/15 09:45:53;;;;;;;2.53;1.20;;;24.20;64.60;;;;;;4885227;29;20047;-75
2023/08/15 09:48:20;;;;;;;1.25;0.90;;;24.20;64.50;;;;;;4915944;29;20037;-74
2023/08/15 09:50:48;;;;;;;1.65;1.02;;;24.20;64.40;;;;;;4900114;29;20128;-76
2023/08/15 09:53:14;;;;;;;1.38;1.10;;;24.30;64.40;;;;;;4900376;29;20387;-78
2023/08/15 09:55:41;;;;;;;1.27;1.15;;;24.30;64.30;;;;;;4900226;29;20047;-76
2023/08/15 09:58:07;;;;;;;1.20;0.90;;;24.30;64.30;;;;;;4901115;29;20036;-80
2023/08/15 10:00:36;;;;;;;1.98;1.10;;;24.40;64.30;;;;;;4899766;29;20060;-74
2023/08/15 10:03:15;;;;;;;1.85;1.10;;;24.50;64.30;;;;;;4899924;29;20039;-75
2023/08/15 10:05:45;;;;;;;1.13;0.98;;;24.50;64.40;;;;;;4901572;29;20037;-75
2023/08/15 10:08:11;;;;;;;1.30;1.20;;;24.50;64.30;;;;;;4901185;29;20037;-75
2023/08/15 10:10:39;;;;;;;1.60;1.20;;;24.60;64.30;;;;;;4900125;29;20045;-75
2023/08/15 10:13:08;;;;;;;2.10;1.20;;;24.60;64.30;;;;;;4899724;29;20524;-75
2023/08/15 10:15:34;;;;;;;2.38;1.20;;;24.70;64.30;;;;;;4899794;29;20032;-75
2023/08/15 10:18:01;;;;;;;2.03;1.20;;;24.70;64.30;;;;;;4884617;29;20036;-77
2023/08/15 10:20:36;;;;;;;1.73;1.10;;;24.80;64.30;;;;;;4900451;29;20037;-74
2023/08/15 10:23:02;;;;;;;2.22;1.30;;;24.80;64.30;;;;;;4884145;29;20032;-75
2023/08/15 10:25:27;;;;;;;1.95;1.17;;;24.90;64.20;;;;;;4900589;29;20031;-77
2023/08/15 10:27:55;;;;;;;1.90;1.20;;;24.90;64.20;;;;;;4901092;29;20033;-75
2023/08/15 10:30:28;;;;;;;1.30;1.10;;;25.00;64.20;;;;;;4899461;29;20047;-76
2023/08/15 10:32:55;;;;;;;1.47;1.00;;;25.10;64.20;;;;;;4900739;29;20041;-76
2023/08/15 10:35:27;;;;;;;1.60;1.00;;;25.10;64.00;;;;;;4883728;29;20277;-76
2023/08/15 10:37:56;;;;;;;1.52;1.00;;;25.10;64.10;;;;;;4883525;29;20402;-76
2023/08/15 10:40:26;;;;;;;2.22;0.98;;;25.20;64.10;;;;;;4901179;29;20040;-75
2023/08/15 10:43:01;;;;;;;1.77;1.30;;;25.20;64.00;;;;;;4899217;29;20542;-74
2023/08/15 10:45:30;;;;;;;1.35;1.17;;;25.20;64.00;;;;;;4914849;29;20080;-74
2023/08/15 10:47:56;;;;;;;1.98;1.40;;;25.30;64.00;;;;;;4899229;29;20147;-74
2023/08/15 10:50:22;;;;;;;2.53;1.25;;;25.30;63.90;;;;;;4898912;29;20096;-75
2023/08/15 10:53:02;;;;;;;1.63;1.15;;;25.30;63.90;;;;;;4900418;29;20135;-76
2023/08/15 10:55:30;;;;;;;1.65;1.17;;;25.40;64.00;;;;;;4898943;29;20044;-75
2023/08/15 10:57:56;;;;;;;1.95;1.08;;;25.40;63.90;;;;;;4899043;29;20084;-75
2023/08/15 11:00:23;;;;;;;2.08;1.27;;;25.40;63.90;;;;;;4899743;29;20462;-75
2023/08/15 11:02:49;;;;;;;2.35;1.17;;;25.50;64.60;;;;;;4899776;29;20474;-76
2023/08/15 11:05:15;;;;;;;1.48;1.33;;;25.50;64.00;;;;;;4898913;29;20478;-75
2023/08/15 11:07:41;;;;;;;1.92;1.20;;;25.60;64.00;;;;;;4898868;29;20039;-75
2023/08/15 11:10:08;;;;;;;1.65;1.20;;;25.60;64.60;;;;;;4898551;29;20173;-76
2023/08/15 11:12:34;;;;;;;1.42;1.15;;;25.60;64.00;;;;;;4898557;29;20055;-75
2023/08/15 11:15:00;;;;;;;1.65;1.13;;;25.70;64.10;;;;;;4898540;29;20039;-76
2023/08/15 11:17:26;;;;;;;1.42;1.10;;;25.70;64.10;;;;;;4898891;29;20394;-75
2023/08/15 11:19:53;;;;;;;2.05;1.33;;;25.70;64.10;;;;;;4900145;29;20041;-75
2023/08/15 11:22:18;;;;;;;1.80;1.40;;;25.80;64.20;;;;;;4898886;29;20092;-75
2023/08/15 11:24:51;;;;;;;1.50;1.27;;;25.80;64.20;;;;;;4898761;29;20458;-76
2023/08/15 11:27:17;;;;;;;1.65;1.23;;;25.90;64.30;;;;;;4914233;29;20037;-76
2023/08/15 11:29:43;;;;;;;1.30;1.20;;;25.90;64.30;;;;;;4882675;29;20534;-75
2023/08/15 11:32:08;;;;;;;1.67;1.45;;;26.00;64.50;;;;;;4899510;29;20036;-76
2023/08/15 11:34:38;;;;;;;2.08;1.30;;;26.00;64.50;;;;;;4882912;29;20048;-75
2023/08/15 11:37:04;;;;;;;1.40;1.10;;;26.00;64.60;;;;;;4898413;29;20036;-76
2023/08/15 11:39:30;;;;;;;1.30;1.20;;;26.10;64.70;;;;;;4882181;29;20410;-75
2023/08/15 11:41:56;;;;;;;1.90;1.33;;;26.10;65.30;;;;;;4913772;29;20037;-75
2023/08/15 11:44:22;;;;;;;1.73;1.33;;;26.20;64.70;;;;;;4898813;29;20178;-77
2023/08/15 11:46:48;;;;;;;1.98;1.23;;;26.20;64.70;;;;;;4898870;29;20123;-75
2023/08/15 11:49:18;;;;;;;1.40;1.23;;;26.20;64.70;;;;;;4914622;29;20040;-79
2023/08/15 11:51:44;;;;;;;1.65;1.33;;;26.30;64.90;;;;;;4898425;29;20131;-77
2023/08/15 11:54:09;;;;;;;1.75;1.25;;;26.30;64.80;;;;;;4883402;29;20124;-76
2023/08/15 11:56:52;;;;;;;1.70;1.17;;;26.30;64.80;;;;;;4898951;29;20079;-76
2023/08/15 11:59:19;;;;;;;1.60;1.27;;;26.40;64.90;;;;;;4898890;29;20079;-76
2023/08/15 12:01:45;;;;;;;1.17;1.08;;;26.50;64.80;;;;;;4898858;29;20088;-76
2023/08/15 12:04:16;;;;;;;1.77;1.30;;;26.50;64.70;;;;;;4899137;29;20037;-76
2023/08/15 12:06:42;;;;;;;2.70;1.55;;;26.50;64.70;;;;;;4898622;29;20040;-76
2023/08/15 12:09:08;;;;;;;3.33;1.45;;;26.60;64.70;;;;;;4897696;29;20037;-76
2023/08/15 12:11:34;;;;;;;1.38;1.27;;;26.60;64.60;;;;;;4899164;29;20040;-77
2023/08/15 12:14:00;;;;;;;1.38;1.20;;;26.60;64.60;;;;;;4899180;29;20052;-76
2023/08/15 12:16:26;;;;;;;2.05;1.20;;;26.60;64.60;;;;;;4882428;29;20032;-75
2023/08/15 12:18:52;;;;;;;2.17;1.42;;;26.70;64.60;;;;;;4897624;29;20132;-76
2023/08/15 12:21:18;;;;;;;2.55;1.63;;;26.70;64.60;;;;;;4882155;29;20041;-76
2023/08/15 12:23:44;;;;;;;1.58;1.38;;;26.80;64.70;;;;;;4913243;29;20092;-75
2023/08/15 12:26:10;;;;;;;1.95;1.33;;;26.80;64.60;;;;;;4897554;29;20040;-76
2023/08/15 12:28:36;;;;;;;2.25;1.60;;;26.80;64.60;;;;;;4913004;29;20064;-77
2023/08/15 12:31:02;;;;;;;2.20;1.42;;;26.80;64.50;;;;;;4898339;29;20100;-76
2023/08/15 12:33:33;;;;;;;2.03;1.40;;;26.90;64.60;;;;;;4897459;29;20148;-75
2023/08/15 12:36:02;;;;;;;2.08;1.40;;;26.90;64.50;;;;;;4881862;29;20371;-76
2023/08/15 12:38:28;;;;;;;1.52;1.27;;;26.90;64.50;;;;;;4897868;29;20053;-76
2023/08/15 12:40:54;;;;;;;2.20;1.40;;;26.90;64.40;;;;;;4912922;29;20528;-75
2023/08/15 12:43:20;;;;;;;1.33;1.23;;;26.90;64.40;;;;;;4897249;29;20060;-76
2023/08/15 12:45:46;;;;;;;1.83;1.40;;;27.00;64.40;;;;;;4913081;29;20119;-76
2023/08/15 12:48:12;;;;;;;1.75;1.42;;;27.00;64.40;;;;;;4897292;29;20131;-75